Time;durP1;ratioP1;P1;durP2;ratioP2;P2;SDS_P1;SDS_P2;PMS_P1;PMS_P2;Temp;Humidity;BMP_temperature;BMP_pressure;BME280_temperature;BME280_humidity;BME280_pressure;Samples;Min_cycle;Max_cycle;Signal;HPM_P1;HPM_P2
2022/05/13 00:00:10;;;;;;;5.30;1.90;;;19.50;78.40;;;;;;5010999;28;20456;-69
2022/05/13 00:02:35;;;;;;;1.97;1.70;;;19.40;78.60;;;;;;5029928;28;20454;-68
2022/05/13 00:05:03;;;;;;;1.70;1.60;;;19.30;79.00;;;;;;5029422;28;20467;-68
2022/05/13 00:07:29;;;;;;;2.33;1.63;;;19.20;78.90;;;;;;5043399;28;20228;-67
2022/05/13 00:09:57;;;;;;;4.07;1.60;;;19.20;79.10;;;;;;5029559;28;20451;-68
2022/05/13 00:12:24;;;;;;;4.73;1.73;;;19.10;79.10;;;;;;5012525;28;20232;-68
2022/05/13 00:14:51;;;;;;;1.60;1.50;;;19.10;79.30;;;;;;5028169;28;20502;-67
2022/05/13 00:17:17;;;;;;;3.20;1.80;;;19.10;79.20;;;;;;5029128;28;20983;-68
2022/05/13 00:19:43;;;;;;;1.93;1.83;;;19.10;78.90;;;;;;5011717;28;20623;-67
2022/05/13 00:22:10;;;;;;;1.53;1.43;;;19.10;79.00;;;;;;5029699;28;20542;-69
2022/05/13 00:24:35;;;;;;;2.90;1.90;;;19.00;79.10;;;;;;5026189;28;20584;-68
2022/05/13 00:27:02;;;;;;;1.83;1.60;;;18.90;79.40;;;;;;5028548;28;20451;-68
2022/05/13 00:29:27;;;;;;;2.23;2.03;;;18.90;79.40;;;;;;5027768;28;20228;-69
2022/05/13 00:31:53;;;;;;;2.37;1.80;;;18.90;79.40;;;;;;5029358;28;20447;-68
2022/05/13 00:34:19;;;;;;;1.80;1.60;;;18.90;79.30;;;;;;5021896;28;20228;-68
2022/05/13 00:36:45;;;;;;;3.63;1.93;;;19.00;79.40;;;;;;5029348;28;20220;-69
2022/05/13 00:39:10;;;;;;;2.03;1.63;;;18.90;79.20;;;;;;5027767;28;20296;-70
2022/05/13 00:41:36;;;;;;;1.80;1.70;;;18.90;79.30;;;;;;5029513;28;20456;-68
2022/05/13 00:44:02;;;;;;;1.70;1.60;;;18.90;79.40;;;;;;5024616;28;20216;-68
2022/05/13 00:46:29;;;;;;;2.20;1.80;;;18.80;79.40;;;;;;5010818;28;20720;-69
2022/05/13 00:48:57;;;;;;;2.00;1.90;;;18.80;79.40;;;;;;5027319;28;20444;-68
2022/05/13 00:51:39;;;;;;;3.57;1.80;;;18.80;79.30;;;;;;5021499;28;20518;-68
2022/05/13 00:54:11;;;;;;;4.60;1.50;;;18.80;79.40;;;;;;5010977;28;20816;-68
2022/05/13 00:56:37;;;;;;;1.70;1.57;;;18.70;79.40;;;;;;5027097;28;20451;-69
2022/05/13 00:59:06;;;;;;;1.87;1.60;;;18.70;79.50;;;;;;5023650;28;20463;-68
2022/05/13 01:01:33;;;;;;;2.13;1.93;;;18.70;79.50;;;;;;5026963;28;20270;-69
2022/05/13 01:04:06;;;;;;;1.60;1.50;;;18.70;79.50;;;;;;5027608;28;20523;-67
2022/05/13 01:06:33;;;;;;;4.30;2.00;;;18.70;79.50;;;;;;5036651;28;20546;-69
2022/05/13 01:08:58;;;;;;;3.43;1.70;;;18.70;79.50;;;;;;5028535;28;20447;-66
2022/05/13 01:11:28;;;;;;;1.90;1.60;;;18.70;79.60;;;;;;5028388;28;20802;-68
2022/05/13 01:14:00;;;;;;;4.87;2.03;;;18.60;79.60;;;;;;5010855;28;20213;-68
2022/05/13 01:16:26;;;;;;;2.93;2.10;;;18.60;79.70;;;;;;5027843;28;20491;-71
2022/05/13 01:18:51;;;;;;;3.07;2.20;;;18.50;79.70;;;;;;5009929;28;20572;-68
2022/05/13 01:21:29;;;;;;;2.13;1.80;;;18.50;79.70;;;;;;5011174;28;20220;-69
2022/05/13 01:23:55;;;;;;;2.67;1.93;;;18.40;79.70;;;;;;5042165;28;20224;-68
2022/05/13 01:26:29;;;;;;;1.93;1.40;;;18.40;79.90;;;;;;5010713;28;20471;-68
2022/05/13 01:28:56;;;;;;;4.60;1.57;;;18.30;79.90;;;;;;5027005;28;20323;-68
2022/05/13 01:31:29;;;;;;;3.60;1.80;;;18.30;79.80;;;;;;5023728;28;20459;-68
2022/05/13 01:33:55;;;;;;;1.60;1.50;;;18.30;80.20;;;;;;5030621;28;20470;-69
2022/05/13 01:36:21;;;;;;;2.10;1.90;;;18.30;80.30;;;;;;5031826;28;20459;-69
2022/05/13 01:38:48;;;;;;;2.20;1.90;;;18.20;80.20;;;;;;5031732;28;20319;-69
2022/05/13 01:41:15;;;;;;;2.67;2.00;;;18.10;80.40;;;;;;5030887;28;20467;-68
2022/05/13 01:43:43;;;;;;;3.33;1.80;;;18.00;80.60;;;;;;5029789;28;20473;-68
2022/05/13 01:46:10;;;;;;;2.30;1.60;;;18.00;80.60;;;;;;5031333;28;20863;-69
2022/05/13 01:48:36;;;;;;;4.03;2.57;;;18.00;80.90;;;;;;5018164;28;20467;-68
2022/05/13 01:51:02;;;;;;;6.10;2.50;;;17.90;81.00;;;;;;5015219;28;20463;-69
2022/05/13 01:53:29;;;;;;;2.47;1.83;;;17.90;81.10;;;;;;5031092;28;20613;-67
2022/05/13 01:55:55;;;;;;;3.57;2.00;;;17.90;81.50;;;;;;5024624;28;20448;-68
2022/05/13 01:58:23;;;;;;;4.60;2.40;;;17.80;81.30;;;;;;5025404;28;20470;-69
2022/05/13 02:00:51;;;;;;;1.70;1.60;;;17.90;81.30;;;;;;5023786;28;20460;-68
2022/05/13 02:06:05;;;;;;;3.37;2.20;;;17.80;81.70;;;;;;5031417;28;21014;-68
2022/05/13 02:08:31;;;;;;;1.83;1.73;;;17.70;81.60;;;;;;5031561;28;20483;-69
2022/05/13 02:10:57;;;;;;;2.43;2.23;;;17.70;81.70;;;;;;5026892;28;20300;-68
2022/05/13 02:13:23;;;;;;;4.90;2.40;;;17.70;81.60;;;;;;5028054;28;20567;-68
2022/05/13 02:15:48;;;;;;;4.00;1.90;;;17.70;81.80;;;;;;5010558;28;20229;-68
2022/05/13 02:18:14;;;;;;;3.10;2.10;;;17.60;81.90;;;;;;5024742;28;20216;-68
2022/05/13 02:20:40;;;;;;;2.27;2.07;;;17.60;81.90;;;;;;5013551;28;20467;-68
2022/05/13 02:23:07;;;;;;;3.57;2.30;;;17.60;81.90;;;;;;5013941;28;20283;-69
2022/05/13 02:25:33;;;;;;;4.70;2.00;;;17.60;82.10;;;;;;5028900;28;20233;-68
2022/05/13 02:28:00;;;;;;;2.30;2.10;;;17.50;82.20;;;;;;5039740;28;20514;-68
2022/05/13 02:30:27;;;;;;;3.43;3.10;;;17.50;82.20;;;;;;5030234;28;20483;-68
2022/05/13 02:32:53;;;;;;;5.00;1.93;;;17.50;82.20;;;;;;5029739;28;20994;-69
2022/05/13 02:35:19;;;;;;;2.53;2.10;;;17.50;82.20;;;;;;5031393;28;20528;-69
2022/05/13 02:37:46;;;;;;;4.33;2.37;;;17.50;82.10;;;;;;5012439;28;20459;-68
2022/05/13 02:40:12;;;;;;;2.00;1.80;;;17.40;82.20;;;;;;5030586;28;20471;-67
2022/05/13 02:42:38;;;;;;;2.27;2.07;;;17.40;82.30;;;;;;5030937;28;21087;-69
2022/05/13 02:45:08;;;;;;;1.90;1.80;;;17.40;82.40;;;;;;5026075;28;20471;-68
2022/05/13 02:47:33;;;;;;;2.43;2.00;;;17.30;82.50;;;;;;5028078;28;20739;-68
2022/05/13 02:50:17;;;;;;;2.20;2.00;;;17.30;82.90;;;;;;5027148;28;20455;-68
2022/05/13 02:52:43;;;;;;;3.90;2.47;;;17.30;82.80;;;;;;5030500;28;20281;-69
2022/05/13 02:55:09;;;;;;;2.20;1.70;;;17.20;82.70;;;;;;5027304;28;20463;-68
2022/05/13 02:57:35;;;;;;;4.13;2.33;;;17.20;82.70;;;;;;5030551;28;20221;-69
2022/05/13 03:00:01;;;;;;;1.83;1.73;;;17.00;82.80;;;;;;5027195;28;20462;-68
2022/05/13 03:02:26;;;;;;;4.67;1.70;;;16.90;83.10;;;;;;5029580;28;20228;-69
2022/05/13 03:04:52;;;;;;;2.27;2.07;;;16.70;83.30;;;;;;5026719;28;20454;-70
2022/05/13 03:07:18;;;;;;;2.33;2.10;;;16.70;83.80;;;;;;5022982;28;20713;-69
2022/05/13 03:09:43;;;;;;;2.53;1.53;;;16.70;83.90;;;;;;5030537;28;20236;-68
2022/05/13 03:12:11;;;;;;;2.27;1.97;;;16.80;83.60;;;;;;5013522;28;20220;-68
2022/05/13 03:14:37;;;;;;;2.00;1.80;;;16.80;83.60;;;;;;5012565;28;20221;-68
2022/05/13 03:17:06;;;;;;;2.00;1.90;;;16.80;83.30;;;;;;5029776;28;20462;-68
2022/05/13 03:19:34;;;;;;;3.53;1.67;;;16.80;83.40;;;;;;5021480;28;20255;-69
2022/05/13 03:22:00;;;;;;;2.03;1.90;;;16.80;83.40;;;;;;5029109;28;20452;-68
2022/05/13 03:24:25;;;;;;;2.43;1.77;;;16.80;83.30;;;;;;5029576;28;20464;-67
2022/05/13 03:26:51;;;;;;;3.03;1.87;;;16.80;83.10;;;;;;5028585;28;20255;-68
2022/05/13 03:29:17;;;;;;;2.13;1.97;;;16.80;83.10;;;;;;5026587;28;20251;-68
2022/05/13 03:31:42;;;;;;;2.90;2.00;;;16.80;83.80;;;;;;5025494;28;20736;-70
2022/05/13 03:34:08;;;;;;;2.50;2.30;;;16.70;82.80;;;;;;5027564;28;20225;-68
2022/05/13 03:36:34;;;;;;;2.13;1.97;;;16.70;83.00;;;;;;5028865;28;20243;-69
2022/05/13 03:38:59;;;;;;;2.17;1.97;;;16.70;83.10;;;;;;5023362;28;20224;-67
2022/05/13 03:41:25;;;;;;;2.10;1.77;;;16.60;83.00;;;;;;5029331;28;20232;-66
2022/05/13 03:43:51;;;;;;;1.90;1.80;;;16.60;83.20;;;;;;5023009;28;20259;-66
2022/05/13 03:46:16;;;;;;;3.77;2.00;;;16.50;83.40;;;;;;5010241;28;20217;-67
2022/05/13 03:48:43;;;;;;;1.93;1.70;;;16.50;83.50;;;;;;5019213;28;20229;-66
2022/05/13 03:51:09;;;;;;;2.20;1.77;;;16.50;83.40;;;;;;5009925;28;20228;-66
2022/05/13 03:53:34;;;;;;;3.63;1.97;;;16.50;83.40;;;;;;5007998;28;20447;-67
2022/05/13 03:56:00;;;;;;;4.63;1.80;;;16.40;83.30;;;;;;5028635;28;20779;-66
2022/05/13 03:58:26;;;;;;;1.77;1.67;;;16.40;83.50;;;;;;5040905;28;20224;-66
2022/05/13 04:00:52;;;;;;;2.93;2.47;;;16.40;83.60;;;;;;5011713;28;20230;-65
2022/05/13 04:03:21;;;;;;;4.70;2.10;;;16.30;84.40;;;;;;5030758;28;20583;-68
2022/05/13 04:11:16;;;;;;;2.57;1.70;;;16.20;84.50;;;;;;5040276;28;20492;-66
2022/05/13 04:16:26;;;;;;;2.30;2.13;;;16.30;84.40;;;;;;5029910;28;20486;-67
2022/05/13 04:18:53;;;;;;;4.13;2.13;;;16.30;84.90;;;;;;5027300;28;20479;-68
2022/05/13 04:21:24;;;;;;;2.23;2.00;;;16.30;85.00;;;;;;5029863;28;20765;-68
2022/05/13 04:23:53;;;;;;;2.30;2.10;;;16.20;85.30;;;;;;5027669;28;20490;-66
2022/05/13 04:26:19;;;;;;;3.10;1.93;;;16.20;85.60;;;;;;5027906;28;20495;-67
2022/05/13 04:28:48;;;;;;;1.77;1.67;;;16.20;86.10;;;;;;5024355;28;20495;-68
2022/05/13 04:31:17;;;;;;;1.80;1.70;;;16.20;86.00;;;;;;5024742;28;20463;-67
2022/05/13 04:33:43;;;;;;;2.40;2.00;;;16.10;86.50;;;;;;5024419;28;20509;-69
2022/05/13 04:36:09;;;;;;;1.87;1.63;;;16.10;86.20;;;;;;5028309;28;20459;-68
2022/05/13 04:38:35;;;;;;;3.80;2.73;;;16.20;86.10;;;;;;5010936;28;20478;-68
2022/05/13 04:43:46;;;;;;;2.47;2.27;;;16.20;86.70;;;;;;5020789;28;20463;-68
2022/05/13 04:46:12;;;;;;;2.30;2.10;;;16.20;86.70;;;;;;5026127;28;20472;-68
2022/05/13 04:48:38;;;;;;;3.10;2.00;;;16.10;86.70;;;;;;5011555;28;20228;-68
2022/05/13 04:51:03;;;;;;;2.73;1.93;;;16.10;86.70;;;;;;5028089;28;20235;-68
2022/05/13 04:53:34;;;;;;;2.20;2.00;;;16.10;86.80;;;;;;5024927;28;20227;-68
2022/05/13 04:56:01;;;;;;;2.90;1.90;;;16.10;86.90;;;;;;5020051;28;20693;-69
2022/05/13 04:58:27;;;;;;;2.07;1.87;;;16.10;87.50;;;;;;4991842;28;20819;-68
2022/05/13 05:00:56;;;;;;;2.53;2.10;;;16.10;87.50;;;;;;5025072;28;20455;-68
2022/05/13 05:03:24;;;;;;;2.40;2.20;;;16.10;87.70;;;;;;5024110;28;20246;-68
2022/05/13 05:05:49;;;;;;;2.07;1.87;;;16.00;88.00;;;;;;5031339;28;20479;-67
2022/05/13 05:08:16;;;;;;;2.83;2.50;;;16.00;87.70;;;;;;5015238;28;20455;-68
2022/05/13 05:10:43;;;;;;;6.17;2.07;;;16.00;88.00;;;;;;5015059;28;20310;-68
2022/05/13 05:13:10;;;;;;;2.30;2.10;;;16.00;88.10;;;;;;5033615;28;20451;-66
2022/05/13 05:15:39;;;;;;;2.40;2.10;;;16.00;88.30;;;;;;5031212;28;20451;-69
2022/05/13 05:18:05;;;;;;;2.77;1.90;;;16.00;88.60;;;;;;5014866;28;20466;-68
2022/05/13 05:20:31;;;;;;;3.70;2.00;;;16.00;88.80;;;;;;5031857;28;20459;-68
2022/05/13 05:22:58;;;;;;;2.40;2.17;;;16.00;88.90;;;;;;5012340;28;20458;-67
2022/05/13 05:25:28;;;;;;;5.43;2.40;;;16.10;89.00;;;;;;5024824;28;20224;-68
2022/05/13 05:27:55;;;;;;;1.97;1.80;;;16.10;89.00;;;;;;5026593;28;20517;-68
2022/05/13 05:30:21;;;;;;;1.70;1.60;;;16.10;88.80;;;;;;4994063;28;20459;-68
2022/05/13 05:32:47;;;;;;;1.87;1.77;;;16.10;89.30;;;;;;5023809;28;20471;-69
2022/05/13 05:35:16;;;;;;;2.97;2.30;;;16.20;89.30;;;;;;5029753;28;20466;-68
2022/05/13 05:37:42;;;;;;;2.70;2.20;;;16.10;89.30;;;;;;5027782;28;20696;-68
2022/05/13 05:40:09;;;;;;;4.67;1.70;;;16.10;89.60;;;;;;5028732;28;20482;-69
2022/05/13 05:42:39;;;;;;;2.77;1.77;;;16.10;89.60;;;;;;5008562;28;20219;-69
2022/05/13 05:45:07;;;;;;;1.70;1.60;;;16.10;89.60;;;;;;5027109;28;20485;-68
2022/05/13 05:47:33;;;;;;;2.53;1.90;;;16.20;89.90;;;;;;5025324;28;20938;-68
2022/05/13 05:50:00;;;;;;;5.00;2.50;;;16.10;90.00;;;;;;5028508;28;20875;-69
2022/05/13 05:52:26;;;;;;;2.20;1.73;;;16.20;89.90;;;;;;5030542;28;20534;-69
2022/05/13 05:58:07;;;;;;;2.43;2.23;;;16.20;89.80;;;;;;5009432;28;20454;-67
2022/05/13 06:00:35;;;;;;;1.83;1.73;;;16.20;90.00;;;;;;5028259;28;20463;-68
2022/05/13 06:03:01;;;;;;;1.93;1.57;;;16.20;89.80;;;;;;5025887;28;20517;-69
2022/05/13 06:05:27;;;;;;;2.03;1.90;;;16.20;89.80;;;;;;5029785;28;20476;-69
2022/05/13 06:07:55;;;;;;;1.40;1.30;;;16.30;89.80;;;;;;5028863;28;20471;-68
2022/05/13 06:10:22;;;;;;;2.80;1.60;;;16.30;89.80;;;;;;5030355;28;20311;-70
2022/05/13 06:12:48;;;;;;;2.17;1.90;;;16.30;90.20;;;;;;5027899;28;20472;-68
2022/05/13 06:15:14;;;;;;;2.23;2.03;;;16.40;89.70;;;;;;5011770;28;20435;-68
2022/05/13 06:17:49;;;;;;;2.13;1.53;;;16.40;89.70;;;;;;5026597;28;21017;-67
2022/05/13 06:20:17;;;;;;;1.83;1.73;;;16.40;89.80;;;;;;5023172;28;20311;-68
2022/05/13 06:22:42;;;;;;;5.37;1.83;;;16.40;89.60;;;;;;5017404;28;20905;-67
2022/05/13 06:25:11;;;;;;;3.20;2.27;;;16.40;89.90;;;;;;5025709;28;20598;-72
2022/05/13 06:27:38;;;;;;;2.33;2.23;;;16.40;89.80;;;;;;5025452;28;20212;-70
2022/05/13 06:30:07;;;;;;;2.20;2.03;;;16.50;89.70;;;;;;5027326;28;20986;-68
2022/05/13 06:32:33;;;;;;;3.80;2.47;;;16.50;89.60;;;;;;5028276;28;20466;-68
2022/05/13 06:34:58;;;;;;;3.13;2.20;;;16.50;89.20;;;;;;5027690;28;20443;-68
2022/05/13 06:37:24;;;;;;;5.80;1.90;;;16.60;89.00;;;;;;5027867;28;20297;-68
2022/05/13 06:39:50;;;;;;;4.10;2.07;;;16.60;88.90;;;;;;5027208;28;20706;-69
2022/05/13 06:42:16;;;;;;;1.77;1.67;;;16.60;89.10;;;;;;5028788;28;20726;-68
2022/05/13 06:44:42;;;;;;;2.30;2.10;;;16.60;88.70;;;;;;5024624;28;20586;-67
2022/05/13 06:47:09;;;;;;;1.70;1.60;;;16.70;88.90;;;;;;5027313;28;20458;-68
2022/05/13 06:49:35;;;;;;;3.50;2.20;;;16.70;88.60;;;;;;5028389;28;20455;-70
2022/05/13 06:52:03;;;;;;;2.60;1.90;;;16.70;88.70;;;;;;5029460;28;20460;-68
2022/05/13 06:54:29;;;;;;;6.07;1.67;;;16.70;88.20;;;;;;5025646;28;20522;-68
2022/05/13 06:56:55;;;;;;;2.93;1.70;;;16.70;88.60;;;;;;5017151;28;20435;-66
2022/05/13 06:59:21;;;;;;;2.27;2.07;;;16.70;88.30;;;;;;5019789;28;20466;-68
2022/05/13 07:01:47;;;;;;;5.03;1.90;;;16.80;88.70;;;;;;5023631;28;20212;-68
2022/05/13 07:04:13;;;;;;;1.63;1.50;;;16.80;88.40;;;;;;5020503;28;20991;-67
2022/05/13 07:06:39;;;;;;;2.40;1.80;;;16.80;88.20;;;;;;5003640;28;20240;-67
2022/05/13 07:09:05;;;;;;;2.90;1.60;;;16.90;88.00;;;;;;5016653;28;20239;-67
2022/05/13 07:11:32;;;;;;;3.07;1.37;;;16.90;87.90;;;;;;5005147;28;20219;-67
2022/05/13 07:13:58;;;;;;;1.93;1.70;;;17.00;87.90;;;;;;5022816;28;20508;-70
2022/05/13 07:16:24;;;;;;;8.40;1.80;;;17.00;87.80;;;;;;5026929;28;20857;-68
2022/05/13 07:18:50;;;;;;;5.03;1.70;;;17.10;87.70;;;;;;5018093;28;20462;-69
2022/05/13 07:21:16;;;;;;;1.77;1.67;;;17.10;87.20;;;;;;5025037;28;20228;-71
2022/05/13 07:23:42;;;;;;;3.57;1.60;;;17.20;87.00;;;;;;5021598;28;20978;-72
2022/05/13 07:26:09;;;;;;;4.37;1.47;;;17.20;86.80;;;;;;5020183;28;20521;-70
2022/05/13 07:28:36;;;;;;;4.17;1.70;;;17.20;86.20;;;;;;5025609;28;20463;-67
2022/05/13 07:31:02;;;;;;;2.40;1.33;;;17.20;86.20;;;;;;5008263;28;20463;-66
2022/05/13 07:33:30;;;;;;;1.33;1.23;;;17.30;86.10;;;;;;5020845;28;20530;-67
2022/05/13 07:35:55;;;;;;;4.10;1.40;;;17.30;85.80;;;;;;5016444;28;20220;-71
2022/05/13 07:38:21;;;;;;;1.67;1.57;;;17.40;85.90;;;;;;5023788;28;20832;-68
2022/05/13 07:43:31;;;;;;;1.80;1.70;;;17.50;86.10;;;;;;5026460;28;20236;-67
2022/05/13 07:45:57;;;;;;;2.50;1.53;;;17.50;84.80;;;;;;5016802;28;20456;-69
2022/05/13 07:48:23;;;;;;;3.80;1.60;;;17.60;85.50;;;;;;5026179;28;20224;-69
2022/05/13 07:50:49;;;;;;;1.70;1.60;;;17.70;85.70;;;;;;5010190;28;20216;-69
2022/05/13 07:53:15;;;;;;;2.40;2.30;;;17.70;85.50;;;;;;5026868;28;20458;-70
2022/05/13 07:55:41;;;;;;;1.83;1.73;;;17.80;85.70;;;;;;5024817;28;20542;-69
2022/05/13 07:58:06;;;;;;;10.03;1.30;;;17.80;84.50;;;;;;5010082;28;20246;-67
2022/05/13 08:00:33;;;;;;;2.97;1.20;;;17.90;84.70;;;;;;5025620;28;20254;-69
2022/05/13 08:03:14;;;;;;;1.37;1.27;;;17.90;83.50;;;;;;5023344;28;20231;-67
2022/05/13 08:05:44;;;;;;;5.67;1.60;;;17.90;83.70;;;;;;5026319;28;20472;-70
2022/05/13 08:08:13;;;;;;;2.83;1.70;;;18.00;81.80;;;;;;5026493;28;20447;-72
2022/05/13 08:10:43;;;;;;;4.67;1.47;;;18.00;81.70;;;;;;5026225;28;20487;-67
2022/05/13 08:13:09;;;;;;;1.40;1.30;;;18.00;82.30;;;;;;5025292;28;20822;-72
2022/05/13 08:15:34;;;;;;;2.00;1.30;;;18.20;81.20;;;;;;5024270;28;20460;-68
2022/05/13 08:18:00;;;;;;;2.40;1.30;;;18.20;80.80;;;;;;5008956;28;20273;-70
2022/05/13 08:20:27;;;;;;;4.07;1.40;;;18.20;81.00;;;;;;5025676;28;20224;-68
2022/05/13 08:22:56;;;;;;;4.00;1.27;;;18.30;81.60;;;;;;5019013;28;20224;-68
2022/05/13 08:25:22;;;;;;;2.10;1.33;;;18.40;80.90;;;;;;5009374;28;20880;-67
2022/05/13 08:27:48;;;;;;;1.37;1.27;;;18.50;80.80;;;;;;5024425;28;20546;-72
2022/05/13 08:30:15;;;;;;;1.53;1.30;;;18.50;80.30;;;;;;5027654;28;20227;-67
2022/05/13 08:32:41;;;;;;;3.83;1.90;;;18.40;79.80;;;;;;5023543;28;20216;-70
2022/05/13 08:35:07;;;;;;;2.20;1.53;;;18.50;81.50;;;;;;5021200;28;20538;-68
2022/05/13 08:37:43;;;;;;;2.90;1.60;;;18.70;80.30;;;;;;5021323;28;20597;-67
2022/05/13 08:40:47;;;;;;;4.37;1.77;;;18.80;80.80;;;;;;5015892;28;20470;-68
2022/05/13 08:43:16;;;;;;;2.30;1.47;;;18.80;80.10;;;;;;5002919;28;20571;-71
2022/05/13 08:45:50;;;;;;;2.40;1.57;;;18.90;79.50;;;;;;5013951;28;20975;-71
2022/05/13 08:48:20;;;;;;;2.80;1.40;;;19.00;80.40;;;;;;5017455;28;21012;-69
2022/05/13 08:51:21;;;;;;;4.13;1.80;;;19.10;79.60;;;;;;5005467;28;20956;-67
2022/05/13 08:54:10;;;;;;;5.67;1.40;;;19.10;79.40;;;;;;5022039;28;20460;-67
2022/05/13 08:56:37;;;;;;;1.87;1.47;;;19.20;79.10;;;;;;5023872;28;20452;-69
2022/05/13 08:59:26;;;;;;;2.43;1.37;;;19.30;79.40;;;;;;5006523;28;20490;-69
2022/05/13 09:02:01;;;;;;;2.30;1.30;;;19.40;78.00;;;;;;5020550;28;20464;-69
2022/05/13 09:04:37;;;;;;;2.47;1.53;;;19.60;76.50;;;;;;5014229;28;20550;-70
2022/05/13 09:07:06;;;;;;;3.03;1.20;;;19.60;76.10;;;;;;5017558;28;20455;-67
2022/05/13 09:09:35;;;;;;;5.53;1.40;;;19.50;75.40;;;;;;5013919;28;20501;-68
2022/05/13 09:12:19;;;;;;;2.67;1.13;;;19.60;74.70;;;;;;5022059;28;20826;-67
2022/05/13 09:15:01;;;;;;;1.87;1.47;;;19.50;72.60;;;;;;5034727;28;20447;-68
2022/05/13 09:17:39;;;;;;;1.60;1.40;;;19.50;72.80;;;;;;5005947;28;20456;-68
2022/05/13 09:20:15;;;;;;;1.30;1.20;;;19.40;71.60;;;;;;5017891;28;20463;-68
2022/05/13 09:22:52;;;;;;;2.43;1.30;;;19.40;71.60;;;;;;5005763;28;20827;-68
2022/05/13 09:25:24;;;;;;;1.73;1.00;;;19.40;72.50;;;;;;5019698;28;20479;-72
2022/05/13 09:27:57;;;;;;;1.57;1.47;;;19.60;71.20;;;;;;5016377;28;20447;-70
2022/05/13 09:30:32;;;;;;;3.50;1.23;;;19.50;69.40;;;;;;5023921;28;20475;-69
2022/05/13 09:33:22;;;;;;;3.03;1.10;;;19.50;70.20;;;;;;5019209;28;20594;-70
2022/05/13 09:35:51;;;;;;;2.60;1.30;;;19.70;71.30;;;;;;5022726;28;21002;-69
2022/05/13 09:38:23;;;;;;;2.30;1.03;;;19.90;69.80;;;;;;5015149;28;20470;-73
2022/05/13 09:40:58;;;;;;;2.03;1.10;;;20.10;69.80;;;;;;5026760;28;20858;-73
2022/05/13 09:44:02;;;;;;;2.93;1.23;;;20.40;70.20;;;;;;5025110;28;20473;-68
2022/05/13 09:46:35;;;;;;;1.37;1.27;;;20.50;70.50;;;;;;5019582;28;20494;-68
2022/05/13 09:49:21;;;;;;;2.80;1.77;;;20.60;70.00;;;;;;5025311;28;20451;-67
2022/05/13 09:52:00;;;;;;;1.20;1.10;;;20.70;70.00;;;;;;5019048;28;20474;-68
2022/05/13 09:54:33;;;;;;;4.07;1.20;;;20.80;68.80;;;;;;5025588;28;20462;-69
2022/05/13 09:57:07;;;;;;;1.27;1.20;;;20.90;67.40;;;;;;5024370;28;20937;-70
2022/05/13 09:59:45;;;;;;;2.37;1.53;;;20.90;67.10;;;;;;5006875;28;20899;-71
2022/05/13 10:02:29;;;;;;;1.43;1.33;;;20.90;68.80;;;;;;5006765;28;20874;-71
2022/05/13 10:05:23;;;;;;;1.30;1.20;;;21.00;68.40;;;;;;5023445;28;20490;-70
2022/05/13 10:07:49;;;;;;;2.33;1.37;;;21.10;68.60;;;;;;5037951;28;20463;-69
2022/05/13 10:16:18;;;;;;;2.60;1.17;;;21.20;67.60;;;;;;5022568;28;20979;-72
2022/05/13 10:18:57;;;;;;;2.47;1.10;;;21.30;66.30;;;;;;5025545;28;20479;-70
2022/05/13 10:21:55;;;;;;;3.43;1.10;;;21.40;66.80;;;;;;5026228;28;20477;-71
2022/05/13 10:24:45;;;;;;;1.10;1.07;;;21.50;66.20;;;;;;5001465;28;20451;-72
2022/05/13 10:27:32;;;;;;;3.63;1.20;;;21.50;65.70;;;;;;5024056;28;20471;-70
2022/05/13 10:30:21;;;;;;;1.33;1.23;;;21.60;66.60;;;;;;5024042;28;20439;-72
2022/05/13 10:32:53;;;;;;;6.33;2.37;;;21.60;66.20;;;;;;5022002;28;20459;-74
2022/05/13 10:35:29;;;;;;;1.50;1.40;;;21.70;66.20;;;;;;5025974;28;20985;-71
2022/05/13 10:38:16;;;;;;;4.20;1.17;;;21.70;67.00;;;;;;5025224;28;20446;-71
2022/05/13 10:40:47;;;;;;;2.37;1.53;;;21.80;65.50;;;;;;5041041;28;20467;-70
2022/05/13 10:43:44;;;;;;;1.30;1.20;;;21.90;65.20;;;;;;5025466;28;20455;-71
2022/05/13 10:46:21;;;;;;;1.20;1.10;;;21.90;65.60;;;;;;5023482;28;20465;-72
2022/05/13 10:48:50;;;;;;;3.57;1.30;;;21.90;66.60;;;;;;5016959;28;20459;-71
2022/05/13 10:51:25;;;;;;;2.13;1.70;;;22.10;66.60;;;;;;5024803;28;20459;-71
2022/05/13 10:54:19;;;;;;;1.70;1.17;;;22.20;65.90;;;;;;5021626;28;20810;-70
2022/05/13 10:57:09;;;;;;;1.37;1.10;;;22.10;64.40;;;;;;5023675;28;20955;-73
2022/05/13 10:59:57;;;;;;;2.10;1.37;;;22.20;64.40;;;;;;5019571;28;20474;-70
2022/05/13 11:03:03;;;;;;;1.47;1.20;;;22.20;64.70;;;;;;5018722;28;20466;-74
2022/05/13 11:05:50;;;;;;;2.97;1.30;;;22.20;64.40;;;;;;5022584;28;20478;-72
2022/05/13 11:09:07;;;;;;;2.60;1.60;;;22.30;64.90;;;;;;5021420;28;20466;-75
2022/05/13 11:11:46;;;;;;;2.07;1.40;;;22.40;66.00;;;;;;4988083;28;20455;-71
2022/05/13 11:14:50;;;;;;;2.13;1.33;;;22.50;66.00;;;;;;5021138;28;20937;-69
2022/05/13 11:17:41;;;;;;;3.40;1.30;;;22.60;65.30;;;;;;5018482;28;20454;-75
2022/05/13 11:20:16;;;;;;;2.40;1.30;;;22.70;66.10;;;;;;5040508;28;20842;-74
2022/05/13 11:23:07;;;;;;;1.90;1.37;;;22.50;65.10;;;;;;5026670;28;20467;-70
2022/05/13 11:28:51;;;;;;;2.23;1.40;;;22.90;64.70;;;;;;5023935;28;20977;-70
2022/05/13 11:31:41;;;;;;;1.67;1.17;;;23.20;65.10;;;;;;5008737;28;20470;-70
2022/05/13 11:34:39;;;;;;;1.50;1.30;;;23.30;65.10;;;;;;5007756;28;20596;-72
2022/05/13 11:37:08;;;;;;;1.57;1.40;;;23.20;64.20;;;;;;5018234;28;20551;-74
2022/05/13 11:40:11;;;;;;;2.43;1.50;;;23.10;64.90;;;;;;5019561;28;20463;-71
2022/05/13 11:43:21;;;;;;;1.10;1.10;;;23.20;65.60;;;;;;5022575;28;20458;-71
2022/05/13 11:46:02;;;;;;;2.37;1.43;;;23.40;65.60;;;;;;5022902;28;20474;-71
2022/05/13 11:48:31;;;;;;;1.40;1.13;;;23.30;65.60;;;;;;5019675;28;20458;-70
2022/05/13 11:51:17;;;;;;;0.97;0.97;;;23.60;63.30;;;;;;5024065;28;20520;-70
2022/05/13 11:53:47;;;;;;;1.20;1.10;;;23.70;64.50;;;;;;5025449;28;20474;-70
2022/05/13 11:56:18;;;;;;;1.00;1.00;;;23.80;64.40;;;;;;5023788;28;20469;-72
2022/05/13 11:58:52;;;;;;;2.07;1.20;;;23.70;64.50;;;;;;5005714;28;20466;-71
2022/05/13 12:01:38;;;;;;;1.43;1.33;;;23.90;64.20;;;;;;5025056;28;20557;-75
2022/05/13 12:04:13;;;;;;;5.77;2.00;;;23.90;64.40;;;;;;5022137;28;20452;-71
2022/05/13 12:06:50;;;;;;;1.50;1.40;;;24.00;64.10;;;;;;5014170;28;20471;-71
2022/05/13 12:09:34;;;;;;;1.10;1.10;;;24.10;63.90;;;;;;5016843;28;20471;-70
2022/05/13 12:12:33;;;;;;;1.40;1.30;;;24.20;63.90;;;;;;5004400;28;20562;-71
2022/05/13 12:15:22;;;;;;;1.10;1.00;;;24.10;63.60;;;;;;5023553;28;20463;-71
2022/05/13 12:18:05;;;;;;;2.30;1.40;;;24.30;63.40;;;;;;5025730;28;20462;-72
2022/05/13 12:20:34;;;;;;;1.03;0.90;;;24.30;64.10;;;;;;5026404;28;20468;-71
2022/05/13 12:23:07;;;;;;;2.80;1.77;;;24.50;61.00;;;;;;5009576;28;20477;-70
2022/05/13 12:25:33;;;;;;;3.67;1.20;;;24.60;61.30;;;;;;5003521;28;20912;-73
2022/05/13 12:28:02;;;;;;;1.43;1.33;;;24.70;60.80;;;;;;5004405;28;20545;-69
2022/05/13 12:30:39;;;;;;;2.70;1.10;;;24.80;60.60;;;;;;5020921;28;20219;-72
2022/05/13 12:33:20;;;;;;;1.47;1.10;;;24.90;60.40;;;;;;5018501;28;20970;-70
2022/05/13 12:39:03;;;;;;;1.40;1.30;;;24.70;60.30;;;;;;5026528;28;20538;-70
2022/05/13 12:41:44;;;;;;;5.20;1.20;;;24.80;59.50;;;;;;5026118;28;20459;-72
2022/05/13 12:44:28;;;;;;;1.07;0.90;;;24.60;59.80;;;;;;5033964;28;20459;-71
2022/05/13 12:47:16;;;;;;;1.30;1.20;;;24.70;59.80;;;;;;5024345;28;20454;-70
2022/05/13 12:49:48;;;;;;;1.27;1.20;;;24.50;59.40;;;;;;5023955;28;20463;-70
2022/05/13 12:52:26;;;;;;;2.13;1.20;;;24.60;59.70;;;;;;5026469;28;20537;-71
2022/05/13 12:55:12;;;;;;;1.77;1.37;;;24.80;59.70;;;;;;5024138;28;20540;-70
2022/05/13 12:57:49;;;;;;;1.00;1.00;;;24.80;59.60;;;;;;5022383;28;20878;-70
2022/05/13 13:00:34;;;;;;;1.33;1.00;;;24.90;59.70;;;;;;5024785;28;20459;-73
2022/05/13 13:03:03;;;;;;;1.57;0.90;;;24.70;59.50;;;;;;5019382;28;20456;-72
2022/05/13 13:05:34;;;;;;;1.00;1.00;;;24.80;59.80;;;;;;5024710;28;20508;-70
2022/05/13 13:08:12;;;;;;;1.30;1.20;;;25.00;59.40;;;;;;5024180;28;20458;-71
2022/05/13 13:11:05;;;;;;;1.50;1.27;;;25.20;59.10;;;;;;5019694;28;20518;-73
2022/05/13 13:13:36;;;;;;;1.10;1.10;;;25.30;58.90;;;;;;5020854;28;20898;-71
2022/05/13 13:16:13;;;;;;;1.30;1.20;;;25.10;59.10;;;;;;5026397;28;20967;-71
2022/05/13 13:18:38;;;;;;;1.33;0.80;;;25.20;59.60;;;;;;5023407;28;20462;-70
2022/05/13 13:21:09;;;;;;;1.03;1.00;;;25.00;58.70;;;;;;5025282;28;20505;-68
2022/05/13 13:23:40;;;;;;;1.20;0.97;;;24.90;58.80;;;;;;5025979;28;20286;-69
2022/05/13 13:26:13;;;;;;;1.33;0.90;;;24.80;58.50;;;;;;5007525;28;20549;-69
2022/05/13 13:28:41;;;;;;;1.80;1.20;;;24.90;59.10;;;;;;5017298;28;20470;-69
2022/05/13 13:31:12;;;;;;;1.47;1.20;;;25.10;58.90;;;;;;5012791;28;20464;-71
2022/05/13 13:33:46;;;;;;;2.10;1.17;;;25.30;58.70;;;;;;5014458;28;20954;-70
2022/05/13 13:36:22;;;;;;;1.83;1.10;;;25.10;58.30;;;;;;5030190;28;20462;-69
2022/05/13 13:38:53;;;;;;;0.90;0.90;;;25.30;58.70;;;;;;5045741;28;20481;-71
2022/05/13 13:41:24;;;;;;;1.50;1.10;;;25.30;58.70;;;;;;5030537;28;20463;-72